createdAt,value
2018-05-16T00:00:31.639Z,1007.02
2018-05-16T00:01:31.571Z,1006.95
2018-05-16T00:02:31.497Z,1006.98
2018-05-16T00:03:31.424Z,1006.91
2018-05-16T00:04:31.361Z,1006.91
2018-05-16T00:05:31.288Z,1006.90
2018-05-16T00:06:31.220Z,1006.90
2018-05-16T00:07:31.151Z,1006.87
2018-05-16T00:08:31.081Z,1006.87
2018-05-16T00:09:31.007Z,1006.90
2018-05-16T00:10:30.938Z,1006.95
2018-05-16T00:11:30.875Z,1006.98
2018-05-16T00:12:30.797Z,1007.01
2018-05-16T00:13:30.719Z,1007.01
2018-05-16T00:14:30.653Z,1007.02
2018-05-16T00:15:30.584Z,1007.06
2018-05-16T00:16:30.512Z,1007.06
2018-05-16T00:17:30.446Z,1007.08
2018-05-16T00:18:30.389Z,1006.99
2018-05-16T00:19:30.303Z,1006.96
2018-05-16T00:20:30.231Z,1007.00
2018-05-16T00:21:30.205Z,1006.95
2018-05-16T00:22:30.090Z,1007.00
2018-05-16T00:23:30.023Z,1007.05
2018-05-16T00:24:29.967Z,1007.07
2018-05-16T00:25:29.877Z,1007.12
2018-05-16T00:26:29.806Z,1007.12
2018-05-16T00:27:29.737Z,1007.08
2018-05-16T00:28:29.665Z,1007.11
2018-05-16T00:29:29.603Z,1007.12
2018-05-16T00:30:29.526Z,1007.13
2018-05-16T00:31:29.457Z,1007.16
2018-05-16T00:32:29.384Z,1007.14
2018-05-16T00:33:29.316Z,1007.19
2018-05-16T00:34:29.245Z,1007.22
2018-05-16T00:35:29.171Z,1007.20
2018-05-16T00:36:29.105Z,1007.26
2018-05-16T00:37:29.035Z,1007.29
2018-05-16T00:38:28.961Z,1007.30
2018-05-16T00:39:28.890Z,1007.33
2018-05-16T00:40:28.820Z,1007.36
2018-05-16T00:41:28.752Z,1007.38
2018-05-16T00:42:28.686Z,1007.48
2018-05-16T00:43:28.606Z,1007.48
2018-05-16T00:44:28.541Z,1007.46
2018-05-16T00:45:28.482Z,1007.44
2018-05-16T00:46:28.404Z,1007.54
2018-05-16T00:47:28.324Z,1007.47
2018-05-16T00:48:28.252Z,1007.51
2018-05-16T00:49:28.183Z,1007.54
2018-05-16T00:50:28.113Z,1007.53
2018-05-16T00:51:28.039Z,1007.56
2018-05-16T00:52:27.968Z,1007.56
2018-05-16T00:53:27.893Z,1007.57
2018-05-16T00:54:27.828Z,1007.57
2018-05-16T00:55:27.756Z,1007.63
2018-05-16T00:56:27.685Z,1007.62
2018-05-16T00:57:27.618Z,1007.65
2018-05-16T00:58:27.544Z,1007.70
2018-05-16T00:59:27.474Z,1007.67
2018-05-16T01:00:27.404Z,1007.68
2018-05-16T01:01:27.332Z,1007.69
2018-05-16T01:02:27.259Z,1007.67
2018-05-16T01:03:27.189Z,1007.68
2018-05-16T01:04:27.123Z,1007.70
2018-05-16T01:05:27.050Z,1007.71
2018-05-16T01:06:26.983Z,1007.72
2018-05-16T01:07:26.905Z,1007.72
2018-05-16T01:08:26.844Z,1007.74
2018-05-16T01:09:26.762Z,1007.71
2018-05-16T01:10:26.690Z,1007.72
2018-05-16T01:11:26.620Z,1007.69
2018-05-16T01:12:26.551Z,1007.71
2018-05-16T01:13:26.476Z,1007.72
2018-05-16T01:14:26.406Z,1007.73
2018-05-16T01:15:26.329Z,1007.75
2018-05-16T01:16:26.263Z,1007.76
2018-05-16T01:17:26.199Z,1007.84
2018-05-16T01:18:26.118Z,1007.83
2018-05-16T01:19:26.059Z,1007.82
2018-05-16T01:20:25.983Z,1007.84
2018-05-16T01:21:25.909Z,1007.90
2018-05-16T01:22:25.836Z,1007.89
2018-05-16T01:23:25.765Z,1007.91
2018-05-16T01:24:25.719Z,1007.90
2018-05-16T01:25:25.621Z,1007.92
2018-05-16T01:26:25.550Z,1007.93
2018-05-16T01:27:25.478Z,1007.98
2018-05-16T01:28:25.401Z,1008.00
2018-05-16T01:29:25.341Z,1007.94
2018-05-16T01:30:25.264Z,1007.97
2018-05-16T01:31:25.196Z,1007.98
2018-05-16T01:32:25.122Z,1008.03
2018-05-16T01:33:25.052Z,1008.01
2018-05-16T01:34:24.975Z,1007.99
2018-05-16T01:35:24.910Z,1008.02
2018-05-16T01:36:24.838Z,1008.05
2018-05-16T01:37:24.767Z,1008.08
2018-05-16T01:38:24.694Z,1008.08
2018-05-16T01:39:24.639Z,1008.11
2018-05-16T01:40:24.552Z,1008.19
2018-05-16T01:41:24.483Z,1008.16
2018-05-16T01:42:24.415Z,1008.12
2018-05-16T01:43:24.337Z,1008.11
2018-05-16T01:44:24.283Z,1008.12
2018-05-16T01:45:24.229Z,1008.09
2018-05-16T01:46:24.126Z,1008.10
2018-05-16T01:47:24.052Z,1008.12
2018-05-16T01:48:24.009Z,1008.11
2018-05-16T01:49:23.915Z,1008.10
2018-05-16T01:50:23.841Z,1008.14
2018-05-16T01:51:23.765Z,1008.11
2018-05-16T01:52:23.700Z,1008.16
2018-05-16T01:53:23.616Z,1008.22
2018-05-16T01:54:23.559Z,1008.27
2018-05-16T01:55:23.483Z,1008.35
2018-05-16T01:56:23.409Z,1008.40
2018-05-16T01:57:23.340Z,1008.38
2018-05-16T01:58:23.263Z,1008.32
2018-05-16T01:59:23.187Z,1008.27
2018-05-16T02:00:23.128Z,1008.28
2018-05-16T02:01:23.054Z,1008.31
2018-05-16T02:02:22.977Z,1008.30
2018-05-16T02:03:22.902Z,1008.30
2018-05-16T02:04:22.834Z,1008.32
2018-05-16T02:05:22.766Z,1008.25
2018-05-16T02:06:22.688Z,1008.28
2018-05-16T02:07:22.611Z,1008.21
2018-05-16T02:08:22.550Z,1008.23
2018-05-16T02:09:22.473Z,1008.24
2018-05-16T02:10:22.402Z,1008.19
2018-05-16T02:11:22.323Z,1008.20
2018-05-16T02:12:22.258Z,1008.14
2018-05-16T02:13:22.194Z,1008.15
2018-05-16T02:14:22.110Z,1008.16
2018-05-16T02:15:22.043Z,1008.16
2018-05-16T02:16:21.970Z,1008.16
2018-05-16T02:17:21.899Z,1008.10
2018-05-16T02:18:21.825Z,1008.07
2018-05-16T02:19:21.758Z,1008.09
2018-05-16T02:20:21.679Z,1008.08
2018-05-16T02:21:21.605Z,1008.04
2018-05-16T02:22:21.536Z,1008.00
2018-05-16T02:23:21.468Z,1007.93
2018-05-16T02:24:21.402Z,1007.82
2018-05-16T02:25:21.320Z,1007.67
2018-05-16T02:26:21.245Z,1007.45
2018-05-16T02:27:21.176Z,1007.45
2018-05-16T02:28:21.102Z,1007.52
2018-05-16T02:29:21.030Z,1007.76
2018-05-16T02:30:20.958Z,1007.83
2018-05-16T02:31:20.884Z,1007.75
2018-05-16T02:32:20.814Z,1007.72
2018-05-16T02:33:20.745Z,1007.70
2018-05-16T02:34:20.663Z,1007.72
2018-05-16T02:35:20.596Z,1007.72
2018-05-16T02:36:20.524Z,1007.73
2018-05-16T02:37:20.489Z,1007.61
2018-05-16T02:38:20.378Z,1007.61
2018-05-16T02:39:20.309Z,1007.67
2018-05-16T02:40:20.238Z,1007.64
2018-05-16T02:41:20.214Z,1007.59
2018-05-16T02:42:20.094Z,1007.60
2018-05-16T02:43:20.019Z,1007.63
2018-05-16T02:44:19.951Z,1007.64
2018-05-16T02:45:19.873Z,1007.65
2018-05-16T02:46:19.805Z,1007.69
2018-05-16T02:47:19.733Z,1007.67
2018-05-16T02:48:19.656Z,1007.69
2018-05-16T02:49:19.592Z,1007.68
2018-05-16T02:50:19.513Z,1007.64
2018-05-16T02:51:19.438Z,1007.66
2018-05-16T02:52:19.368Z,1007.63
2018-05-16T02:53:19.296Z,1007.62
2018-05-16T02:54:19.246Z,1007.64
2018-05-16T02:55:19.149Z,1007.66
2018-05-16T02:56:19.080Z,1007.64
2018-05-16T02:57:19.012Z,1007.64
2018-05-16T02:58:18.932Z,1007.64
2018-05-16T02:59:18.860Z,1007.62
2018-05-16T03:00:18.802Z,1007.64
2018-05-16T03:01:18.719Z,1007.59
2018-05-16T03:02:18.643Z,1007.62
2018-05-16T03:03:18.572Z,1007.62
2018-05-16T03:04:18.496Z,1007.58
2018-05-16T03:05:18.436Z,1007.57
2018-05-16T03:06:18.357Z,1007.54
2018-05-16T03:07:18.284Z,1007.55
2018-05-16T03:08:18.223Z,1007.53
2018-05-16T03:09:18.138Z,1007.63
2018-05-16T03:10:18.063Z,1007.57
2018-05-16T03:11:17.992Z,1007.61
2018-05-16T03:12:17.923Z,1007.65
2018-05-16T03:13:17.841Z,1007.67
2018-05-16T03:14:17.785Z,1007.66
2018-05-16T03:15:17.705Z,1007.65
2018-05-16T03:16:17.636Z,1007.70
2018-05-16T03:17:17.559Z,1007.65
2018-05-16T03:18:17.487Z,1007.66
2018-05-16T03:19:17.423Z,1007.66
2018-05-16T03:20:17.344Z,1007.66
2018-05-16T03:21:17.278Z,1007.68
2018-05-16T03:22:17.191Z,1007.72
2018-05-16T03:23:17.128Z,1007.69
2018-05-16T03:24:17.051Z,1007.78
2018-05-16T03:25:16.975Z,1007.72
2018-05-16T03:26:16.904Z,1007.69
2018-05-16T03:27:16.838Z,1007.68
2018-05-16T03:28:16.766Z,1007.71
2018-05-16T03:29:16.690Z,1007.74
2018-05-16T03:30:16.637Z,1007.72
2018-05-16T03:31:16.547Z,1007.72
2018-05-16T03:32:16.477Z,1007.72
2018-05-16T03:33:16.402Z,1007.73
2018-05-16T03:34:16.329Z,1007.75
2018-05-16T03:35:16.253Z,1007.75
2018-05-16T03:36:16.186Z,1007.77
2018-05-16T03:37:16.113Z,1007.77
2018-05-16T03:38:16.040Z,1007.78
2018-05-16T03:39:15.968Z,1007.77
2018-05-16T03:40:15.896Z,1007.75
2018-05-16T03:41:15.823Z,1007.77
2018-05-16T03:42:15.752Z,1007.73
2018-05-16T03:43:15.676Z,1007.69
2018-05-16T03:44:15.629Z,1007.72
2018-05-16T03:45:15.535Z,1007.74
2018-05-16T03:46:15.459Z,1007.73
2018-05-16T03:47:15.387Z,1007.75
2018-05-16T03:48:15.358Z,1007.73
2018-05-16T03:49:15.239Z,1007.75
2018-05-16T03:50:15.171Z,1007.78
2018-05-16T03:51:15.101Z,1007.77
2018-05-16T03:52:15.027Z,1007.79
2018-05-16T03:53:14.959Z,1007.81
2018-05-16T03:54:14.882Z,1007.80
2018-05-16T03:55:14.809Z,1007.89
2018-05-16T03:56:14.738Z,1007.93
2018-05-16T03:57:14.663Z,1007.95
2018-05-16T03:58:14.591Z,1008.02
2018-05-16T03:59:14.523Z,1008.01
2018-05-16T04:00:14.448Z,1008.00
2018-05-16T04:01:14.376Z,1007.97
2018-05-16T04:02:14.367Z,1007.95
2018-05-16T04:03:14.247Z,1007.95
2018-05-16T04:04:14.155Z,1007.93
2018-05-16T04:05:14.091Z,1007.94
2018-05-16T04:06:14.015Z,1007.91
2018-05-16T04:07:13.934Z,1007.90
2018-05-16T04:08:13.869Z,1007.92
2018-05-16T04:09:13.798Z,1007.93
2018-05-16T04:10:13.724Z,1007.93
2018-05-16T04:11:13.651Z,1007.96
2018-05-16T04:12:13.589Z,1007.94
2018-05-16T04:13:13.517Z,1007.95
2018-05-16T04:14:13.433Z,1007.99
2018-05-16T04:15:13.362Z,1008.02
2018-05-16T04:16:13.284Z,1007.99
2018-05-16T04:17:13.225Z,1008.02
2018-05-16T04:18:13.144Z,1008.03
2018-05-16T04:19:13.073Z,1008.04
2018-05-16T04:20:13.004Z,1008.06
2018-05-16T04:21:12.929Z,1008.02
2018-05-16T04:22:12.855Z,1008.04
2018-05-16T04:23:12.783Z,1008.07
2018-05-16T04:24:12.714Z,1008.04
2018-05-16T04:25:12.638Z,1008.05
2018-05-16T04:26:12.578Z,1008.09
2018-05-16T04:27:12.494Z,1008.08
2018-05-16T04:28:12.421Z,1008.07
2018-05-16T04:29:12.355Z,1008.07
2018-05-16T04:30:12.280Z,1008.09
2018-05-16T04:31:12.202Z,1008.08
2018-05-16T04:32:12.131Z,1008.08
2018-05-16T04:33:12.065Z,1008.09
2018-05-16T04:34:11.985Z,1008.07
2018-05-16T04:35:11.927Z,1008.05
2018-05-16T04:36:11.861Z,1008.07
2018-05-16T04:37:11.772Z,1008.09
2018-05-16T04:38:11.697Z,1008.04
2018-05-16T04:39:11.627Z,1008.04
2018-05-16T04:40:11.559Z,1008.12
2018-05-16T04:41:11.480Z,1008.15
2018-05-16T04:42:11.423Z,1008.19
2018-05-16T04:43:11.334Z,1008.17
2018-05-16T04:44:11.263Z,1008.18
2018-05-16T04:45:11.186Z,1008.21
2018-05-16T04:46:11.210Z,1008.23
2018-05-16T04:47:11.085Z,1008.28
2018-05-16T04:48:10.981Z,1008.26
2018-05-16T04:49:10.902Z,1008.27
2018-05-16T04:50:10.831Z,1008.28
2018-05-16T04:51:10.755Z,1008.28
2018-05-16T04:52:10.684Z,1008.26
2018-05-16T04:53:10.617Z,1008.31
2018-05-16T04:54:10.532Z,1008.31
2018-05-16T04:55:10.466Z,1008.30
2018-05-16T04:56:10.407Z,1008.32
2018-05-16T04:57:10.324Z,1008.32
2018-05-16T04:58:10.249Z,1008.32
2018-05-16T04:59:10.198Z,1008.33
2018-05-16T05:00:10.108Z,1008.37
2018-05-16T05:01:10.032Z,1008.32
2018-05-16T05:02:09.964Z,1008.36
2018-05-16T05:03:09.887Z,1008.35
2018-05-16T05:04:09.812Z,1008.37
2018-05-16T05:05:09.744Z,1008.38
2018-05-16T05:06:09.671Z,1008.40
2018-05-16T05:07:09.600Z,1008.43
2018-05-16T05:08:09.529Z,1008.41
2018-05-16T05:09:09.463Z,1008.46
2018-05-16T05:10:09.385Z,1008.42
2018-05-16T05:11:09.314Z,1008.43
2018-05-16T05:12:09.238Z,1008.44
2018-05-16T05:13:09.168Z,1008.42
2018-05-16T05:14:09.093Z,1008.42
2018-05-16T05:15:09.022Z,1008.43
2018-05-16T05:16:08.959Z,1008.44
2018-05-16T05:17:08.877Z,1008.44
2018-05-16T05:18:08.904Z,1008.43
2018-05-16T05:19:08.740Z,1008.44
2018-05-16T05:20:08.661Z,1008.44
2018-05-16T05:21:08.585Z,1008.48
2018-05-16T05:22:08.517Z,1008.49
2018-05-16T05:23:08.446Z,1008.45
2018-05-16T05:24:08.406Z,1008.54
2018-05-16T05:25:08.307Z,1008.50
2018-05-16T05:26:08.238Z,1008.52
2018-05-16T05:27:08.157Z,1008.51
2018-05-16T05:28:08.084Z,1008.55
2018-05-16T05:29:08.012Z,1008.53
2018-05-16T05:30:07.939Z,1008.56
2018-05-16T05:31:07.870Z,1008.55
2018-05-16T05:32:07.792Z,1008.49
2018-05-16T05:33:07.725Z,1008.48
2018-05-16T05:34:07.649Z,1008.54
2018-05-16T05:35:07.586Z,1008.52
2018-05-16T05:36:07.508Z,1008.53
2018-05-16T05:37:07.431Z,1008.56
2018-05-16T05:38:07.376Z,1008.53
2018-05-16T05:39:07.292Z,1008.52
2018-05-16T05:40:07.224Z,1008.51
2018-05-16T05:41:07.147Z,1008.52
2018-05-16T05:42:07.081Z,1008.53
2018-05-16T05:43:07.002Z,1008.49
2018-05-16T05:44:06.939Z,1008.56
2018-05-16T05:45:06.858Z,1008.56
2018-05-16T05:46:06.786Z,1008.59
2018-05-16T05:47:06.717Z,1008.60
2018-05-16T05:48:06.645Z,1008.59
2018-05-16T05:49:06.599Z,1008.63
2018-05-16T05:50:06.501Z,1008.56
2018-05-16T05:51:06.431Z,1008.60
2018-05-16T05:52:06.363Z,1008.59
2018-05-16T05:53:06.299Z,1008.62
2018-05-16T05:54:06.223Z,1008.61
2018-05-16T05:55:06.150Z,1008.64
2018-05-16T05:56:06.069Z,1008.70
2018-05-16T05:57:05.999Z,1008.64
2018-05-16T05:58:05.924Z,1008.67
2018-05-16T05:59:05.859Z,1008.66
2018-05-16T06:00:05.822Z,1008.66
2018-05-16T06:01:05.711Z,1008.71
2018-05-16T06:02:05.644Z,1008.75
2018-05-16T06:03:05.573Z,1008.76
2018-05-16T06:04:05.497Z,1008.82
2018-05-16T06:05:05.427Z,1008.76
2018-05-16T06:06:05.350Z,1008.81
2018-05-16T06:07:05.274Z,1008.78
2018-05-16T06:08:05.228Z,1008.78
2018-05-16T06:09:05.143Z,1008.74
2018-05-16T06:10:05.080Z,1008.75
2018-05-16T06:11:04.991Z,1008.77
2018-05-16T06:12:04.924Z,1008.76
2018-05-16T06:13:04.854Z,1008.77
2018-05-16T06:14:04.782Z,1008.76
2018-05-16T06:15:04.706Z,1008.82
2018-05-16T06:16:04.637Z,1008.78
2018-05-16T06:17:04.567Z,1008.81
2018-05-16T06:18:04.497Z,1008.77
2018-05-16T06:19:04.421Z,1008.77
2018-05-16T06:20:04.378Z,1008.82
2018-05-16T06:21:04.280Z,1008.78
2018-05-16T06:22:04.210Z,1008.81
2018-05-16T06:23:04.136Z,1008.79
2018-05-16T06:24:04.064Z,1008.84
2018-05-16T06:25:04.000Z,1008.82
2018-05-16T06:26:03.923Z,1008.86
2018-05-16T06:27:03.857Z,1008.87
2018-05-16T06:28:03.775Z,1008.81
2018-05-16T06:29:03.711Z,1008.82
2018-05-16T06:30:03.634Z,1008.84
2018-05-16T06:31:03.564Z,1008.85
2018-05-16T06:32:03.492Z,1008.87
2018-05-16T06:33:03.419Z,1008.86
2018-05-16T06:34:03.349Z,1008.83
2018-05-16T06:35:03.273Z,1008.88
2018-05-16T06:36:03.213Z,1008.86
2018-05-16T06:37:03.136Z,1008.87
2018-05-16T06:38:03.065Z,1008.87
2018-05-16T06:39:02.995Z,1008.83
2018-05-16T06:40:02.926Z,1008.80
2018-05-16T06:41:02.851Z,1008.81
2018-05-16T06:42:02.785Z,1008.83
2018-05-16T06:43:02.708Z,1008.80
2018-05-16T06:44:02.638Z,1008.79
2018-05-16T06:45:02.581Z,1008.85
2018-05-16T06:46:02.497Z,1008.83
2018-05-16T06:47:02.422Z,1008.87
2018-05-16T06:48:02.349Z,1008.91
2018-05-16T06:49:02.283Z,1008.90
2018-05-16T06:50:02.209Z,1008.83
2018-05-16T06:51:02.212Z,1008.84
2018-05-16T06:52:02.067Z,1008.85
2018-05-16T06:53:01.995Z,1008.82
2018-05-16T06:54:01.923Z,1008.91
2018-05-16T06:55:01.853Z,1008.85
2018-05-16T06:56:01.794Z,1008.92
2018-05-16T06:57:01.712Z,1008.85
2018-05-16T06:58:01.640Z,1008.88
2018-05-16T06:59:01.585Z,1008.92
2018-05-16T07:00:01.499Z,1008.90
2018-05-16T07:01:01.428Z,1008.87
2018-05-16T07:02:01.358Z,1008.91
2018-05-16T07:03:01.287Z,1008.90
2018-05-16T07:04:01.255Z,1008.90
2018-05-16T07:05:01.144Z,1008.89
2018-05-16T07:06:01.073Z,1008.96
2018-05-16T07:07:01.000Z,1008.92
2018-05-16T07:08:00.932Z,1008.95
2018-05-16T07:09:00.863Z,1009.02
2018-05-16T07:10:00.795Z,1009.02
2018-05-16T07:11:00.718Z,1009.09
2018-05-16T07:12:00.648Z,1009.09
2018-05-16T07:13:00.580Z,1009.10
2018-05-16T07:14:00.506Z,1009.15
2018-05-16T07:15:00.453Z,1009.14
2018-05-16T07:16:00.365Z,1009.15
2018-05-16T07:17:00.294Z,1009.14
2018-05-16T07:18:00.236Z,1009.12
2018-05-16T07:19:00.153Z,1009.07
2018-05-16T07:20:00.086Z,1009.03
2018-05-16T07:21:00.011Z,1009.01
2018-05-16T07:21:59.941Z,1009.00
2018-05-16T07:22:59.868Z,1008.99
2018-05-16T07:23:59.800Z,1008.96
2018-05-16T07:24:59.735Z,1008.98
2018-05-16T07:25:59.660Z,1009.01
2018-05-16T07:26:59.590Z,1008.98
2018-05-16T07:27:59.517Z,1008.95
2018-05-16T07:28:59.449Z,1008.97
2018-05-16T07:29:59.382Z,1008.93
2018-05-16T07:30:59.312Z,1008.96
2018-05-16T07:31:59.234Z,1009.02
2018-05-16T07:32:59.163Z,1009.02
2018-05-16T07:33:59.095Z,1009.02
2018-05-16T07:34:59.039Z,1009.06
2018-05-16T07:35:58.952Z,1009.08
2018-05-16T07:36:58.956Z,1009.11
2018-05-16T07:37:58.817Z,1009.15
2018-05-16T07:38:58.742Z,1009.15
2018-05-16T07:39:58.677Z,1009.11
2018-05-16T07:40:58.602Z,1009.11
2018-05-16T07:41:58.531Z,1009.17
2018-05-16T07:42:58.469Z,1009.17
2018-05-16T07:43:58.388Z,1009.14
2018-05-16T07:44:58.319Z,1009.14
2018-05-16T07:45:58.257Z,1009.05
2018-05-16T07:46:58.186Z,1009.11
2018-05-16T07:47:58.109Z,1009.09
2018-05-16T07:48:58.038Z,1009.09
2018-05-16T07:49:57.974Z,1009.09
2018-05-16T07:50:57.899Z,1009.13
2018-05-16T07:51:57.830Z,1009.09
2018-05-16T07:52:57.761Z,1009.15
2018-05-16T07:53:57.687Z,1009.14
2018-05-16T07:54:57.633Z,1009.12
2018-05-16T07:55:57.642Z,1009.15
2018-05-16T07:56:57.480Z,1009.11
2018-05-16T07:57:57.428Z,1009.11
2018-05-16T07:58:57.337Z,1009.12
2018-05-16T07:59:57.266Z,1009.10
2018-05-16T08:00:57.196Z,1009.06
2018-05-16T08:01:57.127Z,1009.10
2018-05-16T08:02:57.060Z,1009.14
2018-05-16T08:03:56.987Z,1009.14
2018-05-16T08:04:56.920Z,1009.15
2018-05-16T08:05:56.853Z,1009.14
2018-05-16T08:06:56.778Z,1009.13
2018-05-16T08:07:56.704Z,1009.15
2018-05-16T08:08:56.669Z,1009.15
2018-05-16T08:09:56.574Z,1009.20
2018-05-16T08:10:56.492Z,1009.19
2018-05-16T08:11:56.427Z,1009.20
2018-05-16T08:12:56.362Z,1009.20
2018-05-16T08:13:56.292Z,1009.21
2018-05-16T08:14:56.223Z,1009.20
2018-05-16T08:15:56.157Z,1009.22
2018-05-16T08:16:56.079Z,1009.27
2018-05-16T08:17:56.010Z,1009.26
2018-05-16T08:18:55.939Z,1009.23
2018-05-16T08:19:55.874Z,1009.26
2018-05-16T08:20:55.809Z,1009.27
2018-05-16T08:21:55.731Z,1009.25
2018-05-16T08:22:55.668Z,1009.24
2018-05-16T08:23:55.594Z,1009.20
2018-05-16T08:24:55.522Z,1009.24
2018-05-16T08:25:55.457Z,1009.25
2018-05-16T08:26:55.385Z,1009.23
2018-05-16T08:27:55.316Z,1009.23
2018-05-16T08:28:55.255Z,1009.25
2018-05-16T08:29:55.177Z,1009.25
2018-05-16T08:30:55.107Z,1009.27
2018-05-16T08:31:55.045Z,1009.33
2018-05-16T08:32:54.974Z,1009.27
2018-05-16T08:33:54.903Z,1009.22
2018-05-16T08:34:54.831Z,1009.24
2018-05-16T08:35:54.762Z,1009.22
2018-05-16T08:36:54.694Z,1009.28
2018-05-16T08:37:54.632Z,1009.30
2018-05-16T08:38:54.556Z,1009.32
2018-05-16T08:39:54.491Z,1009.35
2018-05-16T08:40:54.418Z,1009.33
2018-05-16T08:41:54.349Z,1009.34
2018-05-16T08:42:54.372Z,1009.29
2018-05-16T08:43:54.209Z,1009.30
2018-05-16T08:44:54.149Z,1009.29
2018-05-16T08:45:54.080Z,1009.29
2018-05-16T08:46:54.011Z,1009.32
2018-05-16T08:47:53.933Z,1009.30
2018-05-16T08:48:53.871Z,1009.29
2018-05-16T08:49:53.801Z,1009.30
2018-05-16T08:50:53.741Z,1009.31
2018-05-16T08:51:53.663Z,1009.31
2018-05-16T08:52:53.600Z,1009.35
2018-05-16T08:53:53.527Z,1009.34
2018-05-16T08:54:53.463Z,1009.31
2018-05-16T08:55:53.421Z,1009.30
2018-05-16T08:56:53.325Z,1009.31
2018-05-16T08:57:53.257Z,1009.32
2018-05-16T08:58:53.193Z,1009.29
2018-05-16T08:59:53.121Z,1009.33
2018-05-16T09:00:53.056Z,1009.32
2018-05-16T09:01:52.989Z,1009.34
2018-05-16T09:02:52.919Z,1009.29
2018-05-16T09:03:52.858Z,1009.31
2018-05-16T09:04:52.784Z,1009.30
2018-05-16T09:05:52.717Z,1009.32
2018-05-16T09:06:52.653Z,1009.39
2018-05-16T09:07:52.583Z,1009.34
2018-05-16T09:08:52.514Z,1009.35
2018-05-16T09:09:52.451Z,1009.40
2018-05-16T09:10:52.381Z,1009.36
2018-05-16T09:11:52.323Z,1009.40
2018-05-16T09:12:52.250Z,1009.34
2018-05-16T09:13:52.178Z,1009.38
2018-05-16T09:14:52.115Z,1009.38
2018-05-16T09:15:52.049Z,1009.43
2018-05-16T09:16:51.983Z,1009.41
2018-05-16T09:17:51.917Z,1009.39
2018-05-16T09:18:51.854Z,1009.41
2018-05-16T09:19:51.781Z,1009.37
2018-05-16T09:20:51.719Z,1009.43
2018-05-16T09:21:51.654Z,1009.41
2018-05-16T09:22:51.590Z,1009.46
2018-05-16T09:23:51.522Z,1009.44
2018-05-16T09:24:51.456Z,1009.49
2018-05-16T09:25:51.389Z,1009.51
2018-05-16T09:26:51.324Z,1009.48
2018-05-16T09:27:51.261Z,1009.48
2018-05-16T09:28:51.194Z,1009.54
2018-05-16T09:29:51.129Z,1009.49
2018-05-16T09:30:51.071Z,1009.53
2018-05-16T09:31:51.003Z,1009.55
2018-05-16T09:32:50.969Z,1009.56
2018-05-16T09:33:50.871Z,1009.50
2018-05-16T09:34:50.806Z,1009.48
2018-05-16T09:35:50.744Z,1009.54
2018-05-16T09:36:50.681Z,1009.50
2018-05-16T09:37:50.613Z,1009.51
2018-05-16T09:38:50.555Z,1009.48
2018-05-16T09:39:50.499Z,1009.49
2018-05-16T09:40:50.441Z,1009.48
2018-05-16T09:41:50.374Z,1009.50
2018-05-16T09:42:50.307Z,1009.53
2018-05-16T09:43:50.236Z,1009.58
2018-05-16T09:44:50.174Z,1009.61
2018-05-16T09:45:50.166Z,1009.65
2018-05-16T09:46:50.051Z,1009.63
2018-05-16T09:47:49.978Z,1009.55
2018-05-16T09:48:49.928Z,1009.57
2018-05-16T09:49:49.859Z,1009.62
2018-05-16T09:50:49.794Z,1009.60
2018-05-16T09:51:49.732Z,1009.64
2018-05-16T09:52:49.658Z,1009.66
2018-05-16T09:53:49.598Z,1009.61
2018-05-16T09:54:49.544Z,1009.61
2018-05-16T09:55:49.476Z,1009.69
2018-05-16T09:56:49.430Z,1009.62
2018-05-16T09:57:49.348Z,1009.59
2018-05-16T09:58:49.284Z,1009.69
2018-05-16T09:59:49.224Z,1009.62
2018-05-16T10:00:49.160Z,1009.59
2018-05-16T10:01:49.093Z,1009.59
2018-05-16T10:02:49.045Z,1009.62
2018-05-16T10:03:48.967Z,1009.64
2018-05-16T10:04:48.912Z,1009.65
2018-05-16T10:05:48.843Z,1009.66
2018-05-16T10:06:48.774Z,1009.62
2018-05-16T10:07:48.711Z,1009.63
2018-05-16T10:08:48.670Z,1009.73
2018-05-16T10:09:48.676Z,1009.74
2018-05-16T10:10:48.523Z,1009.72
2018-05-16T10:11:48.457Z,1009.74
2018-05-16T10:12:48.407Z,1009.75
2018-05-16T10:13:48.323Z,1009.82
2018-05-16T10:14:48.256Z,1009.84
2018-05-16T10:15:48.196Z,1009.82
2018-05-16T10:16:48.132Z,1009.81
2018-05-16T10:17:48.067Z,1009.76
2018-05-16T10:18:48.005Z,1009.78
2018-05-16T10:19:47.943Z,1009.77
2018-05-16T10:20:47.865Z,1009.70
2018-05-16T10:21:47.806Z,1009.73
2018-05-16T10:22:47.745Z,1009.70
2018-05-16T10:23:47.699Z,1009.71
2018-05-16T10:24:47.613Z,1009.67
2018-05-16T10:25:47.569Z,1009.73
2018-05-16T10:26:47.484Z,1009.69
2018-05-16T10:27:47.419Z,1009.68
2018-05-16T10:28:47.356Z,1009.64
2018-05-16T10:29:47.291Z,1009.68
2018-05-16T10:30:47.238Z,1009.68
2018-05-16T10:31:47.160Z,1009.77
2018-05-16T10:32:47.101Z,1009.76
2018-05-16T10:33:47.026Z,1009.75
2018-05-16T10:34:46.964Z,1009.71
2018-05-16T10:35:46.896Z,1009.72
2018-05-16T10:36:46.831Z,1009.78
2018-05-16T10:37:46.765Z,1009.78
2018-05-16T10:38:46.697Z,1009.68
2018-05-16T10:39:46.637Z,1009.75
2018-05-16T10:40:46.566Z,1009.76
2018-05-16T10:41:46.507Z,1009.67
2018-05-16T10:42:46.436Z,1009.70
2018-05-16T10:43:46.386Z,1009.75
2018-05-16T10:44:46.296Z,1009.73
2018-05-16T10:45:46.238Z,1009.72
2018-05-16T10:46:46.170Z,1009.74
2018-05-16T10:47:46.098Z,1009.75
2018-05-16T10:48:46.039Z,1009.81
2018-05-16T10:49:45.969Z,1009.79
2018-05-16T10:50:45.901Z,1009.75
2018-05-16T10:51:45.830Z,1009.77
2018-05-16T10:52:45.771Z,1009.73
2018-05-16T10:53:45.697Z,1009.72
2018-05-16T10:54:45.646Z,1009.74
2018-05-16T10:55:45.563Z,1009.74
2018-05-16T10:56:45.513Z,1009.79
2018-05-16T10:57:45.426Z,1009.79
2018-05-16T10:58:45.366Z,1009.79
2018-05-16T10:59:45.622Z,1009.80
2018-05-16T11:00:45.226Z,1009.79
2018-05-16T11:01:45.162Z,1009.78
2018-05-16T11:02:45.087Z,1009.86
2018-05-16T11:03:45.026Z,1009.83
2018-05-16T11:04:44.968Z,1009.84
2018-05-16T11:05:44.884Z,1009.86
2018-05-16T11:06:44.812Z,1009.86
2018-05-16T11:07:44.745Z,1009.86
2018-05-16T11:08:44.675Z,1009.88
2018-05-16T11:09:44.625Z,1009.87
2018-05-16T11:10:44.533Z,1009.83
2018-05-16T11:11:44.468Z,1009.82
2018-05-16T11:12:44.402Z,1009.87
2018-05-16T11:13:44.338Z,1009.88
2018-05-16T11:14:44.256Z,1009.84
2018-05-16T11:15:44.200Z,1009.82
2018-05-16T11:16:44.128Z,1009.89
2018-05-16T11:17:44.057Z,1009.86
2018-05-16T11:18:43.991Z,1009.87
2018-05-16T11:19:43.986Z,1009.83
2018-05-16T11:20:43.884Z,1009.84
2018-05-16T11:21:43.779Z,1009.83
2018-05-16T11:22:43.712Z,1009.85
2018-05-16T11:23:43.639Z,1009.84
2018-05-16T11:24:43.572Z,1009.86
2018-05-16T11:25:43.499Z,1009.85
2018-05-16T11:26:43.437Z,1009.85
2018-05-16T11:27:43.362Z,1009.83
2018-05-16T11:28:43.295Z,1009.78
2018-05-16T11:29:43.231Z,1009.82
2018-05-16T11:30:43.161Z,1009.79
2018-05-16T11:31:43.086Z,1009.81
2018-05-16T11:32:43.027Z,1009.83
2018-05-16T11:33:42.944Z,1009.80
2018-05-16T11:34:42.887Z,1009.80
2018-05-16T11:35:42.811Z,1009.82
2018-05-16T11:36:42.830Z,1009.82
2018-05-16T11:37:42.672Z,1009.80
2018-05-16T11:38:42.603Z,1009.78
2018-05-16T11:39:42.535Z,1009.78
2018-05-16T11:40:42.473Z,1009.76
2018-05-16T11:41:42.397Z,1009.74
2018-05-16T11:42:42.329Z,1009.74
2018-05-16T11:43:42.260Z,1009.75
2018-05-16T11:44:42.191Z,1009.72
2018-05-16T11:45:42.121Z,1009.74
2018-05-16T11:46:42.054Z,1009.73
2018-05-16T11:47:41.988Z,1009.71
2018-05-16T11:48:41.965Z,1009.68
2018-05-16T11:49:41.849Z,1009.68
2018-05-16T11:50:41.787Z,1009.71
2018-05-16T11:51:41.714Z,1009.72
2018-05-16T11:52:41.644Z,1009.76
2018-05-16T11:53:41.582Z,1009.75
2018-05-16T11:54:41.512Z,1009.78
2018-05-16T11:55:41.463Z,1009.77
2018-05-16T11:56:41.380Z,1009.80
2018-05-16T11:57:41.321Z,1009.87
2018-05-16T11:58:41.240Z,1009.86
2018-05-16T11:59:41.175Z,1009.85
2018-05-16T12:00:41.106Z,1009.87
2018-05-16T12:01:41.037Z,1009.83
2018-05-16T12:02:40.971Z,1009.89
2018-05-16T12:03:40.901Z,1009.82
2018-05-16T12:04:40.828Z,1009.84